M I D A S
Marine Information and Data Acquisition System
Tripno 1326 of the Zeeleeuw from 2007-08-29 06:33:39 to 2007-08-29 13:56:30
Back to CruiseResearch ActivitiesStationsMapUnderway DataData graphs

EquipmentUnitsComment
TimeDGPSUTC
LatitudeDGPSDM.mWGS84
LongitudeDGPSDM.mWGS84
HeadingGyrodeg 
SOGDGPSknotsSpeed over ground
COGDGPSdegCourse over ground
DepthEcho soundermeters200 kHz
Missing or incorrect values are displayed as -999
Navigation data collected by the RV Zeeleeuw from 2007-08-29 06:37:41 to 2007-08-29 14:07:31
Time Latitude Longitude Heading SOG COG Depth
2007-08-29 06:38:47 51°13.619 2°56.03 114.9 4.4 293 -999
2007-08-29 06:39:46 51°13.657 2°55.909 116.1 4.9 295 -999
2007-08-29 06:40:46 51°13.677 2°55.814 99.6 3.1 281 8.8
2007-08-29 06:41:46 51°13.678 2°55.752 79.9 1.5 267 9
2007-08-29 06:42:46 51°13.679 2°55.725 64.5 0.4 341 11.7
2007-08-29 06:43:46 51°13.705 2°55.73 5.8 2.7 353 11.4
2007-08-29 06:44:46 51°13.793 2°55.662 334.9 7.1 333 9.6
2007-08-29 06:45:46 51°13.918 2°55.57 338.6 8.7 336 9.9
2007-08-29 06:46:46 51°14.05 2°55.479 337.9 8.5 335 9
2007-08-29 06:47:46 51°14.174 2°55.376 333.5 8.3 330 -999
2007-08-29 06:48:46 51°14.284 2°55.219 314.2 9.7 311 8.8
2007-08-29 06:49:46 51°14.395 2°54.992 310.2 11.9 310 9.1
2007-08-29 06:50:46 51°14.55 2°54.777 331.2 12.3 325 8
2007-08-29 06:51:46 51°14.72 2°54.599 334.5 12.4 326 8.2
2007-08-29 06:52:46 51°14.891 2°54.423 335.5 12.1 327 8
2007-08-29 06:53:46 51°15.049 2°54.228 327.8 12 321 7
2007-08-29 06:54:46 51°15.221 2°54.067 341.2 12.2 331 7.5
2007-08-29 06:55:46 51°15.389 2°53.884 332.2 12.4 326 8.1
2007-08-29 06:56:46 51°15.567 2°53.729 341.7 12.2 333 8.9
2007-08-29 06:57:46 51°15.743 2°53.571 337.5 12.2 329 9.3
2007-08-29 06:58:46 51°15.92 2°53.415 340.6 12.2 332 9.8
2007-08-29 06:59:46 51°16.096 2°53.252 339.7 12.2 330 10.1
2007-08-29 07:00:46 51°16.273 2°53.096 339.6 12.2 331 10.4
2007-08-29 07:01:46 51°16.449 2°52.935 339.1 12.2 330 10.4
2007-08-29 07:02:46 51°16.626 2°52.791 339.4 11.9 332 9.8
2007-08-29 07:03:46 51°16.801 2°52.648 339.6 11.7 333 8.5
2007-08-29 07:04:46 51°16.974 2°52.505 339.9 11.7 333 8.4
2007-08-29 07:05:46 51°17.148 2°52.362 339.6 11.8 332 8.8
2007-08-29 07:06:46 51°17.319 2°52.204 337.2 11.9 331 9.1
2007-08-29 07:07:46 51°17.485 2°52.042 329.7 12 316 9
2007-08-29 07:08:47 51°17.582 2°51.749 297.8 12.6 291 8.7
2007-08-29 07:09:47 51°17.676 2°51.453 307.2 12.5 298 8.5
2007-08-29 07:10:47 51°17.762 2°51.147 302.6 12.7 296 8.8
2007-08-29 07:11:47 51°17.854 2°50.84 302.5 12.9 295 10.4
2007-08-29 07:12:47 51°17.941 2°50.528 301.4 12.9 294 11.3
2007-08-29 07:13:47 51°18.029 2°50.206 302.3 13.5 293 12
2007-08-29 07:14:47 51°18.118 2°49.879 303 13.4 294 12.6
2007-08-29 07:15:47 51°18.211 2°49.553 302.7 13.5 294 11.6
2007-08-29 07:16:47 51°18.302 2°49.228 303.5 13.4 295 10
2007-08-29 07:17:47 51°18.398 2°48.908 303.3 13.4 296 9.3
2007-08-29 07:18:46 51°18.495 2°48.594 303.6 13.4 295 9.3
2007-08-29 07:19:46 51°18.59 2°48.275 303.8 13.4 295 11.6
2007-08-29 07:20:46 51°18.684 2°47.954 302.7 13.4 294 13.2
2007-08-29 07:21:46 51°18.775 2°47.63 303.1 13.5 294 15.3
2007-08-29 07:22:46 51°18.862 2°47.303 303.6 13.5 293 17.6
2007-08-29 07:23:46 51°18.951 2°46.976 303.3 13.5 292 18.9
2007-08-29 07:24:47 51°19.04 2°46.636 302.5 13.7 292 19.5
2007-08-29 07:25:47 51°19.129 2°46.299 303.5 13.8 293 19.7
2007-08-29 07:26:47 51°19.217 2°45.96 302.6 13.6 293 17
2007-08-29 07:27:47 51°19.306 2°45.626 304.1 13.7 294 14.5
2007-08-29 07:28:46 51°19.395 2°45.3 302.7 13.7 291 10.8
2007-08-29 07:29:47 51°19.489 2°44.962 302.9 13.7 294 15.3
2007-08-29 07:30:46 51°19.579 2°44.637 303.2 13.6 294 20.7
2007-08-29 07:31:46 51°19.664 2°44.301 302.7 13.7 293 21.7
2007-08-29 07:32:46 51°19.75 2°43.963 302.2 13.8 292 23
2007-08-29 07:33:46 51°19.837 2°43.624 303.3 13.8 291 22.4
2007-08-29 07:34:47 51°19.925 2°43.279 302.9 13.8 292 24.5
2007-08-29 07:35:47 51°20.01 2°42.937 303.5 13.9 292 24.7
2007-08-29 07:36:47 51°20.094 2°42.591 303.3 14 291 23.1
2007-08-29 07:37:47 51°20.179 2°42.246 303.8 13.8 292 20.5
2007-08-29 07:38:47 51°20.263 2°41.901 303.4 14 291 16.5
2007-08-29 07:39:47 51°20.351 2°41.563 303.3 13.7 293 20.5
2007-08-29 07:40:47 51°20.44 2°41.229 303.5 13.6 292 20.5
2007-08-29 07:41:46 51°20.501 2°40.886 291.5 13.9 282 26.8
2007-08-29 07:42:46 51°20.55 2°40.526 292.9 13.8 284 25.9
2007-08-29 07:43:47 51°20.591 2°40.157 289 13.8 280 26
2007-08-29 07:44:47 51°20.63 2°39.794 290.1 13.8 280 23.9
2007-08-29 07:45:46 51°20.642 2°39.431 283.2 13.9 274 24.1
2007-08-29 07:46:46 51°20.662 2°39.062 284.7 14 275 23.8
2007-08-29 07:47:46 51°20.68 2°38.691 284.2 14 275 23.5
2007-08-29 07:48:46 51°20.703 2°38.322 284.8 14 276 21.8
2007-08-29 07:49:46 51°20.725 2°37.953 286 13.9 275 21.4
2007-08-29 07:50:46 51°20.748 2°37.584 284.7 14 276 22.4
2007-08-29 07:51:46 51°20.769 2°37.214 284.5 14.1 276 21.9
2007-08-29 07:52:46 51°20.791 2°36.839 285.1 14.2 276 20.5
2007-08-29 07:53:46 51°20.814 2°36.461 285.3 14.3 275 21.6
2007-08-29 07:54:46 51°20.837 2°36.079 285.7 14.5 277 24
2007-08-29 07:55:46 51°20.859 2°35.695 284.4 14.5 275 26.5
2007-08-29 07:56:46 51°20.882 2°35.312 285.3 14.4 275 25.9
2007-08-29 07:57:46 51°20.905 2°34.925 285.1 14.7 276 30.4
2007-08-29 07:58:46 51°20.927 2°34.534 286 14.7 275 30.6
2007-08-29 07:59:46 51°20.949 2°34.143 285.3 14.7 276 29.6
2007-08-29 08:00:46 51°20.97 2°33.755 285.5 14.6 276 30.1
2007-08-29 08:01:46 51°21.045 2°33.408 315 13.4 305 30.1
2007-08-29 08:02:46 51°21.212 2°33.221 350 11.9 339 28.9
2007-08-29 08:03:46 51°21.397 2°33.115 351.6 11.8 342 26.1
2007-08-29 08:04:46 51°21.585 2°33.03 355.4 11.7 344 22.5
2007-08-29 08:05:46 51°21.774 2°32.958 357.4 11.7 346 21.6
2007-08-29 08:06:46 51°21.962 2°32.872 356.2 11.4 343 26.3
2007-08-29 08:07:46 51°22.147 2°32.778 355.8 11.8 341 29.5
2007-08-29 08:08:46 51°22.333 2°32.673 353.6 12.1 332 30.4
2007-08-29 08:09:46 51°22.473 2°32.42 313.9 13.7 298 30.8
2007-08-29 08:10:46 51°22.518 2°32.052 278.8 14.9 265 30.4
2007-08-29 08:11:46 51°22.51 2°31.652 279.3 15 271 30.2
2007-08-29 08:12:46 51°22.509 2°31.251 277.2 15.2 269 30.1
2007-08-29 08:13:46 51°22.501 2°30.849 278.5 15.2 267 28.9
2007-08-29 08:14:46 51°22.498 2°30.447 277.8 14.9 269 30.1
2007-08-29 08:15:46 51°22.493 2°30.051 279.5 14.8 268 30.5
2007-08-29 08:16:47 51°22.482 2°29.648 275.8 14.9 267 32.4
2007-08-29 08:17:47 51°22.468 2°29.253 276.5 14.8 266 31.9
2007-08-29 08:18:47 51°22.455 2°28.858 275.7 14.9 267 32.1
2007-08-29 08:19:47 51°22.442 2°28.462 276.7 15 268 32.6
2007-08-29 08:20:46 51°22.428 2°28.072 276.5 15 266 33.6
2007-08-29 08:21:47 51°22.414 2°27.667 276.9 15.1 266 33.1
2007-08-29 08:22:47 51°22.4 2°27.266 276.9 14.9 267 34.2
2007-08-29 08:23:47 51°22.39 2°26.876 280.7 14.4 270 32.9
2007-08-29 08:24:47 51°22.395 2°26.491 282.8 14.3 271 32.6
2007-08-29 08:25:47 51°22.404 2°26.108 282.2 14.4 272 32.2
2007-08-29 08:26:47 51°22.434 2°25.734 296.4 13.9 289 26.8
2007-08-29 08:27:47 51°22.553 2°25.442 330.9 12.6 318 19.3
2007-08-29 08:28:47 51°22.735 2°25.33 7.2 11.3 358 25
2007-08-29 08:29:47 51°22.918 2°25.378 21.7 11.2 10 28.1
2007-08-29 08:30:47 51°23.101 2°25.423 18 11.2 8 30.2
2007-08-29 08:31:47 51°23.285 2°25.458 17 11.1 6 31.5
2007-08-29 08:32:47 51°23.47 2°25.489 15.9 11.1 5 32.1
2007-08-29 08:33:47 51°23.655 2°25.515 16 11.2 6 32.5
2007-08-29 08:34:47 51°23.84 2°25.544 15.9 11.1 7 32.4
2007-08-29 08:35:47 51°24.024 2°25.577 16 11.1 6 33.5
2007-08-29 08:36:47 51°24.205 2°25.612 18.8 10.9 8 32.6
2007-08-29 08:37:47 51°24.384 2°25.655 18.8 10.8 10 32.8
2007-08-29 08:38:47 51°24.561 2°25.696 18.9 10.8 8 34.9
2007-08-29 08:39:47 51°24.736 2°25.736 18.1 10.6 8 34.7
2007-08-29 08:40:47 51°24.911 2°25.777 18.2 10.6 7 33.7
2007-08-29 08:41:47 51°25.086 2°25.818 19.6 10.6 11 32.7
2007-08-29 08:42:47 51°25.26 2°25.864 19.9 10.7 10 33.2
2007-08-29 08:43:47 51°25.433 2°25.908 19.8 10.6 10 32.2
2007-08-29 08:44:47 51°25.605 2°25.954 19.5 10.6 9 32.9
2007-08-29 08:45:47 51°25.779 2°26.002 18.9 10.5 10 33.9
2007-08-29 08:46:47 51°25.952 2°26.053 19.5 10.7 12 33.1
2007-08-29 08:47:47 51°26.129 2°26.104 20.2 10.8 11 30.5
2007-08-29 08:48:47 51°26.306 2°26.154 18.5 10.8 8 28.5
2007-08-29 08:49:45 51°26.479 2°26.204 19.4 11 11 24.3
2007-08-29 08:50:44 51°26.654 2°26.254 19.7 10.8 10 23.7
2007-08-29 08:51:44 51°26.832 2°26.305 18.7 10.9 10 22.9
2007-08-29 08:52:43 51°27.008 2°26.354 19 11.1 10 23.7
2007-08-29 08:53:43 51°27.187 2°26.411 19.9 11 13 26.9
2007-08-29 08:54:44 51°27.37 2°26.468 19.5 10.9 12 31.5
2007-08-29 08:55:44 51°27.549 2°26.526 18.8 11 11 31.7
2007-08-29 08:56:44 51°27.727 2°26.585 19.3 11 12 32.7
2007-08-29 08:57:44 51°27.906 2°26.648 19.3 11 13 32.9
2007-08-29 08:58:43 51°28.081 2°26.709 19.5 11.1 13 32.9
2007-08-29 08:59:44 51°28.266 2°26.775 19.3 11.2 14 33.3
2007-08-29 09:00:43 51°28.441 2°26.836 17.1 11.1 5 33
2007-08-29 09:01:43 51°28.619 2°26.745 334.6 11.9 322 34.1
2007-08-29 09:02:44 51°28.738 2°26.46 311.5 12.9 301 34.1
2007-08-29 09:03:43 51°28.849 2°26.177 313.6 12.7 305 33.9
2007-08-29 09:04:44 51°28.965 2°25.892 314.5 12.9 305 33.8
2007-08-29 09:05:44 51°29.084 2°25.612 310.9 12.7 298 32.6
2007-08-29 09:06:44 51°29.157 2°25.287 296.9 13.1 288 27.2
2007-08-29 09:07:44 51°29.229 2°24.96 299.1 12.9 290 25.7
2007-08-29 09:08:44 51°29.303 2°24.635 299 13.1 291 26.4
2007-08-29 09:09:43 51°29.375 2°24.31 299 13.1 290 31.8
2007-08-29 09:10:43 51°29.503 2°24.068 343.7 11.5 337 36.4
2007-08-29 09:11:44 51°29.683 2°24.089 27.5 10.6 26 40.2
2007-08-29 09:12:43 51°29.836 2°24.217 29.6 10.4 24 38.5
2007-08-29 09:13:44 51°30.001 2°24.33 28.2 10.6 23 40.8
2007-08-29 09:14:43 51°30.16 2°24.435 30 10.4 26 37.6
2007-08-29 09:15:44 51°30.316 2°24.574 32.3 10.7 27 39.1
2007-08-29 09:16:43 51°30.471 2°24.702 31.7 10.6 27 39.7
2007-08-29 09:17:43 51°30.627 2°24.835 32 10.5 27 38.6
2007-08-29 09:18:44 51°30.785 2°24.97 32.3 10.7 29 37.7
2007-08-29 09:19:44 51°30.939 2°25.108 33.3 10.7 30 39
2007-08-29 09:20:44 51°31.094 2°25.252 33.2 10.9 30 40
2007-08-29 09:21:44 51°31.253 2°25.391 32.9 10.8 28 40.4
2007-08-29 09:22:43 51°31.407 2°25.53 33.6 10.9 29 36.7
2007-08-29 09:23:44 51°31.567 2°25.673 33.7 10.8 29 40.3
2007-08-29 09:24:44 51°31.726 2°25.813 33.2 11 28 38.8
2007-08-29 09:25:44 51°31.885 2°25.957 33.8 11 30 38
2007-08-29 09:26:43 51°32.041 2°26.102 34.1 10.9 30 38.7
2007-08-29 09:27:44 51°32.202 2°26.253 34.6 10.8 31 38.8
2007-08-29 09:28:42 51°32.355 2°26.395 34.8 10.9 30 37.8
2007-08-29 09:29:44 51°32.518 2°26.541 34.1 10.8 28 37.1
2007-08-29 09:30:42 51°32.67 2°26.683 34.1 11 29 35.4
2007-08-29 09:31:43 51°32.832 2°26.832 34.4 11 29 37.9
2007-08-29 09:32:43 51°32.992 2°26.976 34.6 11 30 38
2007-08-29 09:33:44 51°33.154 2°27.123 34.4 11 31 36.4
2007-08-29 09:34:42 51°33.309 2°27.263 33.5 11 30 33.5
2007-08-29 09:35:43 51°33.471 2°27.408 34.2 11 30 38.1
2007-08-29 09:36:44 51°33.635 2°27.555 34 11.1 28 36.6
2007-08-29 09:37:43 51°33.79 2°27.696 34.7 10.8 28 34.3
2007-08-29 09:38:44 51°33.949 2°27.847 37.1 11 36 36.5
2007-08-29 09:39:42 51°34.098 2°27.999 37.3 10.8 32 36.6
2007-08-29 09:40:43 51°34.253 2°28.159 37.1 11 34 36.9
2007-08-29 09:41:43 51°34.404 2°28.315 36.7 10.7 33 35.1
2007-08-29 09:42:43 51°34.556 2°28.472 36.6 10.9 30 34.2
2007-08-29 09:43:43 51°34.708 2°28.63 37 10.8 32 32.4
2007-08-29 09:44:43 51°34.861 2°28.785 37 10.8 32 33.4
2007-08-29 09:45:43 51°35.012 2°28.943 36.8 11 32 29.9
2007-08-29 09:46:42 51°35.162 2°29.099 38.4 11 35 34.7
2007-08-29 09:47:43 51°35.316 2°29.257 36.9 10.9 32 35.1
2007-08-29 09:48:42 51°35.468 2°29.41 36.4 10.8 34 37.1
2007-08-29 09:49:44 51°35.628 2°29.566 36.6 10.9 32 36
2007-08-29 09:50:42 51°35.777 2°29.709 36.8 10.7 31 35.9
2007-08-29 09:51:43 51°35.931 2°29.861 36.2 10.7 32 35.9
2007-08-29 09:52:44 51°36.087 2°30.017 36.9 10.6 33 35.5
2007-08-29 09:53:42 51°36.236 2°30.16 36.6 10.7 30 34.3
2007-08-29 09:54:43 51°36.39 2°30.312 35.8 10.7 33 36.6
2007-08-29 09:55:44 51°36.545 2°30.463 35.9 10.8 32 35.3
2007-08-29 09:56:43 51°36.693 2°30.611 36.5 10.7 32 35.8
2007-08-29 09:57:44 51°36.846 2°30.768 36.4 10.7 33 36.5
2007-08-29 09:58:43 51°36.996 2°30.918 36.4 10.9 32 37
2007-08-29 09:59:43 51°37.148 2°31.073 36.3 10.8 32 37.6
2007-08-29 10:00:44 51°37.301 2°31.229 36.3 10.7 33 38.2
2007-08-29 10:01:43 51°37.45 2°31.381 36.7 10.7 34 38.4
2007-08-29 10:02:44 51°37.605 2°31.539 36.3 10.9 33 38.3
2007-08-29 10:03:44 51°37.758 2°31.695 35.7 10.9 33 39
2007-08-29 10:04:44 51°37.909 2°31.852 36.1 10.9 31 40.4
2007-08-29 10:05:44 51°38.062 2°32.011 36 10.9 32 40.4
2007-08-29 10:06:44 51°38.215 2°32.171 36.2 10.9 33 40.4
2007-08-29 10:07:44 51°38.368 2°32.332 35.9 11.1 32 41.2
2007-08-29 10:08:44 51°38.523 2°32.492 36.3 11 33 41.8
2007-08-29 10:09:44 51°38.677 2°32.653 35.9 11.1 32 42.6
2007-08-29 10:10:44 51°38.831 2°32.813 36.3 10.8 32 42.6
2007-08-29 10:11:44 51°38.986 2°32.968 34.5 11 31 41.8
2007-08-29 10:12:44 51°39.145 2°33.118 34.6 11.2 31 41.8
2007-08-29 10:13:44 51°39.304 2°33.269 34 11.3 31 41.1
2007-08-29 10:14:44 51°39.463 2°33.421 34.5 11.1 32 42.7
2007-08-29 10:15:44 51°39.621 2°33.573 34.1 11.2 30 41.4
2007-08-29 10:16:44 51°39.78 2°33.729 33.9 11.2 31 43.7
2007-08-29 10:17:44 51°39.939 2°33.883 33.2 11.2 30 38.7
2007-08-29 10:18:44 51°40.099 2°34.038 34.8 11.2 32 39.6
2007-08-29 10:19:44 51°40.26 2°34.194 33.9 11.1 31 38.2
2007-08-29 10:20:44 51°40.419 2°34.349 34.1 11.3 31 37.7
2007-08-29 10:21:44 51°40.58 2°34.504 34.1 11.2 31 37.2
2007-08-29 10:22:44 51°40.738 2°34.66 34.3 11.1 31 37.6
2007-08-29 10:23:44 51°40.901 2°34.805 25.5 10.9 13 36.1
2007-08-29 10:24:44 51°41.083 2°34.863 11.3 11.3 8 35.3
2007-08-29 10:25:44 51°41.247 2°34.995 34.9 11.2 33 34.6
2007-08-29 10:26:44 51°41.402 2°35.159 39.6 11.2 41 35.6
2007-08-29 10:27:44 51°41.517 2°35.397 57.2 11.4 59 27.8
2007-08-29 10:28:44 51°41.603 2°35.672 61.8 11.5 63 31.8
2007-08-29 10:29:44 51°41.688 2°35.947 62.8 11.4 65 19.9
2007-08-29 10:30:44 51°41.775 2°36.217 61.2 11.5 62 24.7
2007-08-29 10:31:44 51°41.829 2°36.514 74.7 11.7 77 28.7
2007-08-29 10:32:44 51°41.873 2°36.821 75.1 11.8 76 26
2007-08-29 10:33:44 51°41.893 2°37.138 80.9 11.9 84 29.8
2007-08-29 10:34:44 51°41.896 2°37.459 95.9 12.3 108 33.4
2007-08-29 10:35:44 51°41.717 2°37.602 180.8 13.5 189 37.8
2007-08-29 10:36:44 51°41.522 2°37.406 217.5 14.1 215 36.2
2007-08-29 10:37:44 51°41.332 2°37.185 212.3 14 208 33.2
2007-08-29 10:38:44 51°41.106 2°37.122 176.2 13.9 178 34.8
2007-08-29 10:39:44 51°40.908 2°37.275 136.2 13 137 37.2
2007-08-29 10:40:44 51°40.794 2°37.563 111.8 12.7 119 39.1
2007-08-29 10:41:44 51°40.695 2°37.864 113.3 12.7 118 39.2
2007-08-29 10:42:44 51°40.594 2°38.167 114.1 12.8 116 42.4
2007-08-29 10:43:44 51°40.496 2°38.47 114.3 12.7 120 41.6
2007-08-29 10:44:44 51°40.4 2°38.773 114.3 12.6 115 40.6
2007-08-29 10:45:44 51°40.303 2°39.076 114.2 12.6 115 39.5
2007-08-29 10:46:44 51°40.211 2°39.379 114.5 12.6 114 39
2007-08-29 10:47:44 51°40.118 2°39.684 114.7 12.7 117 40.3
2007-08-29 10:48:44 51°40.026 2°39.992 113.9 12.8 119 38.6
2007-08-29 10:49:44 51°39.927 2°40.294 116.6 12.6 115 37.2
2007-08-29 10:50:44 51°39.827 2°40.596 116.7 12.7 119 32.9
2007-08-29 10:51:44 51°39.726 2°40.897 117.3 12.8 116 34.5
2007-08-29 10:52:44 51°39.622 2°41.196 116.9 12.8 121 30.4
2007-08-29 10:53:44 51°39.521 2°41.496 117.2 12.7 116 28.1
2007-08-29 10:54:44 51°39.418 2°41.798 117.5 13 120 24.1
2007-08-29 10:55:44 51°39.264 2°42.046 137.9 13.3 142 27.1
2007-08-29 10:56:44 51°39.061 2°42.186 169.5 13.3 170 30
2007-08-29 10:57:44 51°38.833 2°42.174 189 14.3 190 30.2
2007-08-29 10:58:44 51°38.603 2°42.14 184.3 13.6 184 29.7
2007-08-29 10:59:44 51°38.373 2°42.124 184.3 14 182 31.3
2007-08-29 11:00:44 51°38.144 2°42.111 182.3 13.7 183 31.3
2007-08-29 11:01:44 51°37.914 2°42.1 182.3 13.7 182 33.4
2007-08-29 11:02:44 51°37.682 2°42.09 182.6 14 180 34.3
2007-08-29 11:03:44 51°37.473 2°41.972 221.4 13.6 221 33.1
2007-08-29 11:04:44 51°37.384 2°41.658 267.3 13 263 28.6
2007-08-29 11:05:44 51°37.383 2°41.314 277.8 13.1 270 21.2
2007-08-29 11:06:44 51°37.385 2°40.968 276.1 12.9 274 22.4
2007-08-29 11:07:44 51°37.39 2°40.625 277.3 12.8 271 22
2007-08-29 11:08:44 51°37.396 2°40.28 276.4 12.9 268 28.5
2007-08-29 11:09:44 51°37.405 2°39.936 277.2 12.9 273 33.4
2007-08-29 11:10:44 51°37.412 2°39.591 277.9 12.7 272 36.5
2007-08-29 11:11:44 51°37.42 2°39.245 277.5 12.8 273 40.3
2007-08-29 11:12:44 51°37.428 2°38.899 275.8 13 271 41.1
2007-08-29 11:13:44 51°37.436 2°38.555 277.1 12.9 274 40.7
2007-08-29 11:14:44 51°37.446 2°38.211 276.5 13 270 39.2
2007-08-29 11:15:44 51°37.457 2°37.87 277.4 12.8 269 39.3
2007-08-29 11:16:44 51°37.468 2°37.529 277.2 12.8 274 40.2
2007-08-29 11:17:44 51°37.48 2°37.187 277 12.5 274 39.7
2007-08-29 11:18:44 51°37.491 2°36.845 275.5 12.8 272 40.8
2007-08-29 11:19:44 51°37.501 2°36.503 277.1 12.8 273 40.3
2007-08-29 11:20:44 51°37.511 2°36.158 277.1 12.9 271 38.6
2007-08-29 11:21:44 51°37.521 2°35.812 278.4 13 275 39.1
2007-08-29 11:22:44 51°37.533 2°35.47 277.1 12.8 274 38.2
2007-08-29 11:23:44 51°37.548 2°35.13 277.7 12.6 274 32.1
2007-08-29 11:24:44 51°37.564 2°34.794 276.8 12.7 274 27.7
2007-08-29 11:25:44 51°37.536 2°34.475 246.7 12.3 243 19.1
2007-08-29 11:26:44 51°37.422 2°34.194 238.9 12.7 239 26.2
2007-08-29 11:27:44 51°37.284 2°33.95 213.8 12.2 205 31.4
2007-08-29 11:28:44 51°37.082 2°33.842 200.2 13.2 198 29.7
2007-08-29 11:29:44 51°36.88 2°33.727 201.5 13 199 29.8
2007-08-29 11:30:44 51°36.676 2°33.618 198.5 12.7 202 32.9
2007-08-29 11:31:44 51°36.473 2°33.505 199.5 13.1 200 34.2
2007-08-29 11:32:44 51°36.271 2°33.389 202 12.7 196 35.2
2007-08-29 11:33:44 51°36.071 2°33.267 201.8 12.7 204 35.3
2007-08-29 11:34:44 51°35.87 2°33.148 201 13.3 202 36.2
2007-08-29 11:35:44 51°35.67 2°33.029 202.4 12.9 202 37.5
2007-08-29 11:36:44 51°35.471 2°32.91 201.7 12.8 201 36.2
2007-08-29 11:37:44 51°35.271 2°32.791 201.9 13.1 201 36.4
2007-08-29 11:38:44 51°35.071 2°32.672 201 12.8 201 35.7
2007-08-29 11:39:44 51°34.87 2°32.559 200 12.7 201 33.9
2007-08-29 11:40:44 51°34.665 2°32.468 197.4 12.8 196 32.4
2007-08-29 11:41:44 51°34.46 2°32.378 197.4 13 194 30.5
2007-08-29 11:42:44 51°34.249 2°32.4 175.3 12.7 173 27.6
2007-08-29 11:43:44 51°34.034 2°32.389 188.6 12.7 187 27.2
2007-08-29 11:44:44 51°33.822 2°32.354 190.9 12.7 189 29.2
2007-08-29 11:45:44 51°33.611 2°32.321 189.6 12.9 185 31
2007-08-29 11:46:44 51°33.4 2°32.291 190.3 12.8 185 33.1
2007-08-29 11:47:43 51°33.192 2°32.265 188.9 12.9 182 31.2
2007-08-29 11:48:44 51°32.98 2°32.234 189.5 12.4 183 24.6
2007-08-29 11:49:44 51°32.772 2°32.201 190.5 12.7 185 27.9
2007-08-29 11:50:44 51°32.564 2°32.175 188.3 12.2 183 28.6
2007-08-29 11:51:44 51°32.357 2°32.148 190.1 12.4 186 33.8
2007-08-29 11:52:44 51°32.148 2°32.127 184.8 12.7 182 35.9
2007-08-29 11:53:44 51°31.951 2°32.159 168.5 9.8 161 33.1
2007-08-29 11:54:44 51°31.826 2°32.248 162.9 7.9 155 37.3
2007-08-29 11:55:44 51°31.734 2°32.326 161.7 5.5 152 38.3
2007-08-29 11:56:43 51°31.637 2°32.403 165.7 8.1 160 37.4
2007-08-29 11:57:44 51°31.46 2°32.478 173.2 12.1 167 38.1
2007-08-29 11:58:44 51°31.261 2°32.552 172.8 12.2 167 36.8
2007-08-29 11:59:44 51°31.06 2°32.63 172.7 12.4 167 36.2
2007-08-29 12:00:44 51°30.86 2°32.703 173.5 12.3 168 35.2
2007-08-29 12:01:44 51°30.66 2°32.78 172.5 12.1 166 31.5
2007-08-29 12:02:43 51°30.463 2°32.857 172.2 12.5 164 28.5
2007-08-29 12:03:43 51°30.264 2°32.94 173.1 12 163 23.9
2007-08-29 12:04:43 51°30.064 2°33.024 174.4 12.2 163 25.1
2007-08-29 12:05:44 51°29.876 2°33.165 148.8 13 134 24
2007-08-29 12:06:44 51°29.784 2°33.483 107.2 13.6 100 20.4
2007-08-29 12:07:44 51°29.755 2°33.857 102.1 14.3 99 20.3
2007-08-29 12:08:43 51°29.732 2°34.222 97.8 13.9 94 36.5
2007-08-29 12:09:43 51°29.723 2°34.588 98.3 13.6 93 39.1
2007-08-29 12:10:43 51°29.709 2°34.947 100 13.4 95 39.6
2007-08-29 12:11:44 51°29.702 2°35.308 96.5 13.3 91 39.7
2007-08-29 12:12:44 51°29.695 2°35.66 97.6 13.4 91 37.6
2007-08-29 12:13:44 51°29.685 2°36.019 97.1 13.5 91 35.5
2007-08-29 12:14:43 51°29.671 2°36.373 98.3 13.5 92 33.9
2007-08-29 12:15:44 51°29.659 2°36.739 97.8 13.7 92 27.5
2007-08-29 12:16:43 51°29.646 2°37.098 97.9 13.8 94 27.7
2007-08-29 12:17:43 51°29.585 2°37.438 128.5 13.3 122 36.1
2007-08-29 12:18:43 51°29.435 2°37.682 148.5 12.6 140 38.9
2007-08-29 12:19:43 51°29.258 2°37.853 160.4 12.4 155 38.6
2007-08-29 12:20:44 51°29.066 2°37.978 164.7 12.4 162 38.9
2007-08-29 12:21:44 51°28.875 2°38.106 165.8 12.7 157 38.7
2007-08-29 12:22:43 51°28.688 2°38.229 165.2 12.4 160 39.1
2007-08-29 12:23:43 51°28.495 2°38.358 164.4 12.6 159 39.4
2007-08-29 12:24:43 51°28.304 2°38.485 164 12.2 159 40.8
2007-08-29 12:25:43 51°28.116 2°38.616 164.3 12.5 156 38
2007-08-29 12:26:43 51°27.928 2°38.746 164.4 12.2 156 34.7
2007-08-29 12:27:43 51°27.738 2°38.858 167.6 12.1 162 34.6
2007-08-29 12:28:43 51°27.546 2°38.963 168.5 12.3 161 34.6
2007-08-29 12:29:44 51°27.351 2°39.069 168.9 12.3 161 36.4
2007-08-29 12:30:43 51°27.161 2°39.158 171.1 12 163 35.5
2007-08-29 12:31:43 51°26.966 2°39.25 170.6 12.3 162 34.5
2007-08-29 12:32:43 51°26.772 2°39.339 171.8 12 166 34.6
2007-08-29 12:33:43 51°26.577 2°39.42 171.5 12.1 168 37.2
2007-08-29 12:34:43 51°26.384 2°39.507 171.1 12 164 35.4
2007-08-29 12:35:43 51°26.19 2°39.593 171.8 12 163 35.1
2007-08-29 12:36:43 51°25.997 2°39.68 170.3 11.9 164 34
2007-08-29 12:37:43 51°25.805 2°39.77 171.8 12.2 165 33.4
2007-08-29 12:38:43 51°25.614 2°39.845 171.5 11.8 165 32.4
2007-08-29 12:39:43 51°25.423 2°39.926 172.1 11.9 164 31.5
2007-08-29 12:40:43 51°25.231 2°40.001 171.7 11.7 165 29.5
2007-08-29 12:41:43 51°25.04 2°40.079 170.9 11.8 167 29.8
2007-08-29 12:42:43 51°24.849 2°40.16 171.3 12 165 30.2
2007-08-29 12:43:43 51°24.656 2°40.243 171.5 12 165 29.1
2007-08-29 12:44:43 51°24.465 2°40.329 171.1 12 164 29.2
2007-08-29 12:45:43 51°24.276 2°40.417 169.9 11.5 163 26.6
2007-08-29 12:46:43 51°24.09 2°40.509 171 11.5 161 30.7
2007-08-29 12:47:44 51°23.9 2°40.604 172 11.8 163 31.4
2007-08-29 12:48:43 51°23.715 2°40.681 178.3 11.5 172 31.6
2007-08-29 12:49:43 51°23.526 2°40.692 187.1 11.3 180 30.8
2007-08-29 12:50:43 51°23.335 2°40.694 186.7 11.4 181 32.3
2007-08-29 12:51:43 51°23.145 2°40.694 186.7 11.6 181 32.5
2007-08-29 12:52:43 51°22.954 2°40.693 187.6 11.3 183 32
2007-08-29 12:53:43 51°22.762 2°40.695 185.7 11.6 181 31.9
2007-08-29 12:54:43 51°22.569 2°40.695 185.8 11.5 180 32
2007-08-29 12:55:43 51°22.377 2°40.694 186.2 11.6 178 29.6
2007-08-29 12:56:44 51°22.182 2°40.695 185.5 11.5 180 31
2007-08-29 12:57:43 51°21.995 2°40.698 187 11.6 180 30.2
2007-08-29 12:58:43 51°21.805 2°40.695 186.5 11.5 179 29.6
2007-08-29 12:59:43 51°21.615 2°40.698 186 11.4 177 29.7
2007-08-29 13:00:44 51°21.422 2°40.698 186.3 11.4 181 29.6
2007-08-29 13:01:44 51°21.23 2°40.7 186.1 11.5 178 28.1
2007-08-29 13:02:43 51°21.044 2°40.733 168.3 12 157 28.5
2007-08-29 13:03:43 51°20.884 2°40.936 146 12.6 138 29.2
2007-08-29 13:04:43 51°20.742 2°41.188 136.7 12.8 127 29.4
2007-08-29 13:05:43 51°20.621 2°41.471 130.7 13.2 122 26.3
2007-08-29 13:06:43 51°20.513 2°41.778 127 13.4 118 23.3
2007-08-29 13:07:43 51°20.406 2°42.091 128 13.8 119 20.1
2007-08-29 13:08:43 51°20.302 2°42.41 123.3 13.6 117 24.9
2007-08-29 13:09:43 51°20.207 2°42.736 123.3 13.5 117 27.2
2007-08-29 13:10:43 51°20.112 2°43.06 124.1 13.5 117 28.7
2007-08-29 13:11:43 51°20.014 2°43.381 124.9 13.5 118 28.8
2007-08-29 13:12:43 51°19.917 2°43.698 123.9 13.1 117 28.4
2007-08-29 13:13:43 51°19.821 2°44.013 123.3 13.2 118 25.6
2007-08-29 13:14:43 51°19.726 2°44.33 124.7 13.3 116 26.2
2007-08-29 13:15:43 51°19.634 2°44.651 125 13.1 116 24.6
2007-08-29 13:16:43 51°19.541 2°44.968 125.8 13.2 117 22.5
2007-08-29 13:17:43 51°19.448 2°45.289 123.3 13.2 114 14.1
2007-08-29 13:18:43 51°19.347 2°45.612 125.1 13.8 116 16.1
2007-08-29 13:19:44 51°19.246 2°45.936 123.4 13.2 116 21.2
2007-08-29 13:20:43 51°19.147 2°46.246 123.9 13.5 116 22.8
2007-08-29 13:21:44 51°19.047 2°46.567 123.5 13.3 114 23.8
2007-08-29 13:22:43 51°18.955 2°46.879 123.3 13.1 115 23.4
2007-08-29 13:23:44 51°18.862 2°47.203 122.8 13.2 113 22
2007-08-29 13:24:44 51°18.772 2°47.525 122.9 13.1 114 20.1
2007-08-29 13:25:43 51°18.685 2°47.842 122.8 13.1 116 18
2007-08-29 13:26:43 51°18.595 2°48.161 122.2 13 117 16.3
2007-08-29 13:27:43 51°18.503 2°48.479 122.4 13.2 114 14.2
2007-08-29 13:28:44 51°18.406 2°48.798 123.7 12.8 122 13
2007-08-29 13:29:43 51°18.312 2°49.108 123.5 13 116 13.1
2007-08-29 13:30:44 51°18.216 2°49.427 123.5 13.1 115 14.3
2007-08-29 13:31:44 51°18.121 2°49.74 123.3 13 116 16.5
2007-08-29 13:32:43 51°18.029 2°50.048 123.2 13.1 115 16.4
2007-08-29 13:33:44 51°17.934 2°50.368 123.9 13.2 116 15.7
2007-08-29 13:34:44 51°17.844 2°50.684 122 13 114 15
2007-08-29 13:35:44 51°17.745 2°50.989 129.5 13 119 13.5
2007-08-29 13:36:43 51°17.633 2°51.269 134.9 12.7 127 12.2
2007-08-29 13:37:43 51°17.504 2°51.535 137.4 12.5 129 12.4
2007-08-29 13:38:43 51°17.371 2°51.793 143.9 12.2 138 13
2007-08-29 13:39:43 51°17.202 2°51.974 158.2 12 150 13.6
2007-08-29 13:40:43 51°17.026 2°52.134 156.9 12.4 149 13.1
2007-08-29 13:41:43 51°16.852 2°52.298 157.3 12.1 149 12.6
2007-08-29 13:42:43 51°16.676 2°52.466 158.3 12 151 13.2
2007-08-29 13:43:43 51°16.495 2°52.582 176.8 11.6 167 14.5
2007-08-29 13:44:43 51°16.318 2°52.742 155.9 12.5 146 14.7
2007-08-29 13:45:43 51°16.145 2°52.917 156.5 12.1 148 14.6
2007-08-29 13:46:43 51°15.975 2°53.108 153.8 12.7 144 14.5
2007-08-29 13:47:43 51°15.805 2°53.296 153.7 12.7 143 13.9
2007-08-29 13:48:43 51°15.632 2°53.476 159.4 12.4 150 13.5
2007-08-29 13:49:43 51°15.447 2°53.611 163.3 12.6 154 12.9
2007-08-29 13:50:43 51°15.274 2°53.782 151.5 11.9 144 12.4
2007-08-29 13:51:43 51°15.106 2°53.969 151.7 12.4 143 11.8
2007-08-29 13:52:43 51°14.94 2°54.154 154 12.3 145 11.6
2007-08-29 13:53:43 51°14.775 2°54.352 150.9 12.6 141 12.2
2007-08-29 13:54:43 51°14.621 2°54.58 148.5 12.9 140 12.5
2007-08-29 13:55:43 51°14.471 2°54.811 143.2 12.3 133 13.6
2007-08-29 13:56:43 51°14.356 2°55.061 129.2 11.5 125 13.3
2007-08-29 13:57:43 51°14.256 2°55.266 132 9 132 13
2007-08-29 13:58:43 51°14.153 2°55.398 151.4 7.1 151 -999
2007-08-29 13:59:43 51°14.058 2°55.467 158.9 5.4 157 13.3
2007-08-29 14:00:43 51°13.98 2°55.522 158.4 6.1 157 13.6
2007-08-29 14:01:44 51°13.859 2°55.609 156.7 7.9 155 13.4
2007-08-29 14:02:47 51°13.755 2°55.712 134.6 6.6 137 -999
2007-08-29 14:03:47 51°13.698 2°55.821 127.6 4.9 127 -999
2007-08-29 14:04:47 51°13.653 2°55.925 123.9 4.7 123 -999
2007-08-29 14:05:48 51°13.62 2°56.027 111.9 3.9 111 -999
2007-08-29 14:06:48 51°13.606 2°56.091 108.8 1.1 109 -999